sensor_id;sensor_type;location;lat;lon;timestamp;P1;durP1;ratioP1;P2;durP2;ratioP2
74624;SDS011;63131;52.298;8.056;2023-02-27T00:01:42;8.40;;;3.72;;
74624;SDS011;63131;52.298;8.056;2023-02-27T00:04:08;7.88;;;3.00;;
74624;SDS011;63131;52.298;8.056;2023-02-27T00:06:34;8.57;;;3.75;;
74624;SDS011;63131;52.298;8.056;2023-02-27T00:08:59;9.45;;;3.63;;
74624;SDS011;63131;52.298;8.056;2023-02-27T00:11:24;9.25;;;3.85;;
74624;SDS011;63131;52.298;8.056;2023-02-27T00:13:50;9.70;;;3.63;;
74624;SDS011;63131;52.298;8.056;2023-02-27T00:16:15;10.57;;;4.65;;
74624;SDS011;63131;52.298;8.056;2023-02-27T00:18:41;9.73;;;3.90;;
74624;SDS011;63131;52.298;8.056;2023-02-27T00:21:06;8.38;;;3.85;;
74624;SDS011;63131;52.298;8.056;2023-02-27T00:23:32;10.18;;;4.10;;
74624;SDS011;63131;52.298;8.056;2023-02-27T00:25:57;10.50;;;4.15;;
74624;SDS011;63131;52.298;8.056;2023-02-27T00:28:25;11.77;;;4.00;;
74624;SDS011;63131;52.298;8.056;2023-02-27T00:30:51;9.75;;;4.00;;
74624;SDS011;63131;52.298;8.056;2023-02-27T00:33:16;13.30;;;4.70;;
74624;SDS011;63131;52.298;8.056;2023-02-27T00:35:41;10.52;;;4.03;;
74624;SDS011;63131;52.298;8.056;2023-02-27T00:38:07;11.40;;;4.07;;
74624;SDS011;63131;52.298;8.056;2023-02-27T00:40:32;12.45;;;4.05;;
74624;SDS011;63131;52.298;8.056;2023-02-27T00:42:59;10.45;;;4.18;;
74624;SDS011;63131;52.298;8.056;2023-02-27T00:45:25;12.32;;;3.83;;
74624;SDS011;63131;52.298;8.056;2023-02-27T00:47:51;7.95;;;3.47;;
74624;SDS011;63131;52.298;8.056;2023-02-27T00:50:16;11.63;;;4.30;;
74624;SDS011;63131;52.298;8.056;2023-02-27T00:52:41;9.48;;;4.40;;
74624;SDS011;63131;52.298;8.056;2023-02-27T00:55:07;9.23;;;4.03;;
74624;SDS011;63131;52.298;8.056;2023-02-27T00:57:33;9.02;;;3.55;;
74624;SDS011;63131;52.298;8.056;2023-02-27T00:59:58;9.40;;;3.80;;
74624;SDS011;63131;52.298;8.056;2023-02-27T01:02:24;10.15;;;3.70;;
74624;SDS011;63131;52.298;8.056;2023-02-27T01:04:49;8.23;;;3.17;;
74624;SDS011;63131;52.298;8.056;2023-02-27T01:07:14;10.00;;;3.20;;
74624;SDS011;63131;52.298;8.056;2023-02-27T01:09:40;8.20;;;3.20;;
74624;SDS011;63131;52.298;8.056;2023-02-27T01:12:05;9.18;;;3.15;;
74624;SDS011;63131;52.298;8.056;2023-02-27T01:14:31;8.27;;;3.63;;
74624;SDS011;63131;52.298;8.056;2023-02-27T01:16:56;9.32;;;3.10;;
74624;SDS011;63131;52.298;8.056;2023-02-27T01:19:22;8.70;;;3.33;;
74624;SDS011;63131;52.298;8.056;2023-02-27T01:21:48;7.90;;;3.40;;
74624;SDS011;63131;52.298;8.056;2023-02-27T01:24:13;8.82;;;2.90;;
74624;SDS011;63131;52.298;8.056;2023-02-27T01:26:39;9.20;;;3.28;;
74624;SDS011;63131;52.298;8.056;2023-02-27T01:29:04;9.77;;;3.60;;
74624;SDS011;63131;52.298;8.056;2023-02-27T01:31:30;9.82;;;3.50;;
74624;SDS011;63131;52.298;8.056;2023-02-27T01:33:55;9.63;;;3.35;;
74624;SDS011;63131;52.298;8.056;2023-02-27T01:36:21;10.15;;;3.83;;
74624;SDS011;63131;52.298;8.056;2023-02-27T01:38:46;8.38;;;4.32;;
74624;SDS011;63131;52.298;8.056;2023-02-27T01:41:12;7.28;;;2.90;;
74624;SDS011;63131;52.298;8.056;2023-02-27T01:43:54;8.57;;;3.53;;
74624;SDS011;63131;52.298;8.056;2023-02-27T01:46:25;11.27;;;3.20;;
74624;SDS011;63131;52.298;8.056;2023-02-27T01:48:51;9.65;;;3.20;;
74624;SDS011;63131;52.298;8.056;2023-02-27T01:51:23;9.10;;;4.18;;
74624;SDS011;63131;52.298;8.056;2023-02-27T01:53:50;6.82;;;2.60;;
74624;SDS011;63131;52.298;8.056;2023-02-27T01:56:17;8.23;;;3.03;;
74624;SDS011;63131;52.298;8.056;2023-02-27T01:58:44;8.75;;;2.67;;
74624;SDS011;63131;52.298;8.056;2023-02-27T02:01:12;9.27;;;3.13;;
74624;SDS011;63131;52.298;8.056;2023-02-27T02:03:54;5.57;;;2.13;;
74624;SDS011;63131;52.298;8.056;2023-02-27T02:06:24;8.52;;;2.78;;
74624;SDS011;63131;52.298;8.056;2023-02-27T02:08:50;8.38;;;2.88;;
74624;SDS011;63131;52.298;8.056;2023-02-27T02:11:16;6.97;;;2.78;;
74624;SDS011;63131;52.298;8.056;2023-02-27T02:13:43;8.25;;;3.00;;
74624;SDS011;63131;52.298;8.056;2023-02-27T02:18:56;9.00;;;3.35;;
74624;SDS011;63131;52.298;8.056;2023-02-27T02:27:34;8.57;;;2.63;;
74624;SDS011;63131;52.298;8.056;2023-02-27T02:41:17;7.05;;;2.53;;
74624;SDS011;63131;52.298;8.056;2023-02-27T02:43:56;6.70;;;2.47;;
74624;SDS011;63131;52.298;8.056;2023-02-27T02:49:32;5.50;;;2.03;;
74624;SDS011;63131;52.298;8.056;2023-02-27T02:52:18;8.55;;;2.40;;
74624;SDS011;63131;52.298;8.056;2023-02-27T02:57:32;6.28;;;2.10;;
74624;SDS011;63131;52.298;8.056;2023-02-27T03:02:36;8.70;;;2.95;;
74624;SDS011;63131;52.298;8.056;2023-02-27T03:05:05;7.32;;;2.40;;
74624;SDS011;63131;52.298;8.056;2023-02-27T03:12:32;8.73;;;2.22;;
74624;SDS011;63131;52.298;8.056;2023-02-27T03:15:07;8.65;;;2.60;;
74624;SDS011;63131;52.298;8.056;2023-02-27T03:17:42;7.82;;;2.45;;
74624;SDS011;63131;52.298;8.056;2023-02-27T03:20:13;7.53;;;2.60;;
74624;SDS011;63131;52.298;8.056;2023-02-27T03:22:42;7.97;;;2.60;;
74624;SDS011;63131;52.298;8.056;2023-02-27T03:25:11;7.78;;;3.08;;
74624;SDS011;63131;52.298;8.056;2023-02-27T03:27:39;7.05;;;2.70;;
74624;SDS011;63131;52.298;8.056;2023-02-27T03:30:19;8.88;;;2.95;;
74624;SDS011;63131;52.298;8.056;2023-02-27T03:41:50;9.32;;;2.70;;
74624;SDS011;63131;52.298;8.056;2023-02-27T03:47:09;7.45;;;2.65;;
74624;SDS011;63131;52.298;8.056;2023-02-27T03:49:34;8.60;;;2.97;;
74624;SDS011;63131;52.298;8.056;2023-02-27T03:51:59;9.25;;;3.15;;
74624;SDS011;63131;52.298;8.056;2023-02-27T03:54:26;7.45;;;2.92;;
74624;SDS011;63131;52.298;8.056;2023-02-27T03:56:59;7.28;;;2.85;;
74624;SDS011;63131;52.298;8.056;2023-02-27T03:59:29;7.65;;;2.65;;
74624;SDS011;63131;52.298;8.056;2023-02-27T04:01:55;8.63;;;2.90;;
74624;SDS011;63131;52.298;8.056;2023-02-27T04:04:21;9.73;;;2.50;;
74624;SDS011;63131;52.298;8.056;2023-02-27T04:06:49;8.77;;;2.85;;
74624;SDS011;63131;52.298;8.056;2023-02-27T04:09:57;6.38;;;2.40;;
74624;SDS011;63131;52.298;8.056;2023-02-27T04:21:37;8.90;;;2.63;;
74624;SDS011;63131;52.298;8.056;2023-02-27T04:26:32;6.43;;;2.35;;
74624;SDS011;63131;52.298;8.056;2023-02-27T04:29:11;5.55;;;2.28;;
74624;SDS011;63131;52.298;8.056;2023-02-27T04:31:50;8.48;;;3.15;;
74624;SDS011;63131;52.298;8.056;2023-02-27T04:34:28;7.78;;;2.75;;
74624;SDS011;63131;52.298;8.056;2023-02-27T04:39:30;8.35;;;2.70;;
74624;SDS011;63131;52.298;8.056;2023-02-27T04:41:59;7.93;;;2.45;;
74624;SDS011;63131;52.298;8.056;2023-02-27T04:44:27;6.85;;;2.63;;
74624;SDS011;63131;52.298;8.056;2023-02-27T04:46:54;6.93;;;2.58;;
74624;SDS011;63131;52.298;8.056;2023-02-27T04:49:22;8.90;;;2.60;;
74624;SDS011;63131;52.298;8.056;2023-02-27T04:51:58;6.88;;;2.28;;
74624;SDS011;63131;52.298;8.056;2023-02-27T04:57:56;7.55;;;2.72;;
74624;SDS011;63131;52.298;8.056;2023-02-27T05:00:05;6.15;;;2.58;;
74624;SDS011;63131;52.298;8.056;2023-02-27T05:02:37;8.85;;;2.58;;
74624;SDS011;63131;52.298;8.056;2023-02-27T05:05:08;8.30;;;2.85;;
74624;SDS011;63131;52.298;8.056;2023-02-27T05:07:39;8.05;;;2.95;;
74624;SDS011;63131;52.298;8.056;2023-02-27T05:10:07;6.97;;;2.72;;
74624;SDS011;63131;52.298;8.056;2023-02-27T05:12:44;8.25;;;2.90;;
74624;SDS011;63131;52.298;8.056;2023-02-27T05:17:39;8.27;;;3.05;;
74624;SDS011;63131;52.298;8.056;2023-02-27T05:20:07;10.45;;;3.13;;
74624;SDS011;63131;52.298;8.056;2023-02-27T05:22:40;6.65;;;2.92;;
74624;SDS011;63131;52.298;8.056;2023-02-27T05:28:12;7.15;;;2.17;;
74624;SDS011;63131;52.298;8.056;2023-02-27T05:33:36;7.72;;;2.88;;
74624;SDS011;63131;52.298;8.056;2023-02-27T05:36:19;11.05;;;2.53;;
74624;SDS011;63131;52.298;8.056;2023-02-27T05:38:50;9.43;;;3.42;;
74624;SDS011;63131;52.298;8.056;2023-02-27T05:41:22;7.10;;;3.10;;
74624;SDS011;63131;52.298;8.056;2023-02-27T05:43:50;8.80;;;2.85;;
74624;SDS011;63131;52.298;8.056;2023-02-27T05:46:19;9.07;;;3.08;;
74624;SDS011;63131;52.298;8.056;2023-02-27T05:48:49;11.35;;;3.45;;
74624;SDS011;63131;52.298;8.056;2023-02-27T05:51:18;8.88;;;2.85;;
74624;SDS011;63131;52.298;8.056;2023-02-27T05:56:20;7.78;;;3.08;;
74624;SDS011;63131;52.298;8.056;2023-02-27T05:58:52;9.55;;;3.03;;
74624;SDS011;63131;52.298;8.056;2023-02-27T06:01:20;6.78;;;2.60;;
74624;SDS011;63131;52.298;8.056;2023-02-27T06:03:46;7.82;;;2.80;;
74624;SDS011;63131;52.298;8.056;2023-02-27T06:06:16;8.82;;;2.70;;
74624;SDS011;63131;52.298;8.056;2023-02-27T06:08:43;9.95;;;3.22;;
74624;SDS011;63131;52.298;8.056;2023-02-27T06:11:09;6.88;;;3.13;;
74624;SDS011;63131;52.298;8.056;2023-02-27T06:13:34;9.43;;;3.17;;
74624;SDS011;63131;52.298;8.056;2023-02-27T06:16:00;7.00;;;2.42;;
74624;SDS011;63131;52.298;8.056;2023-02-27T06:18:25;10.70;;;3.00;;
74624;SDS011;63131;52.298;8.056;2023-02-27T06:20:50;7.25;;;2.88;;
74624;SDS011;63131;52.298;8.056;2023-02-27T06:23:16;8.68;;;3.38;;
74624;SDS011;63131;52.298;8.056;2023-02-27T06:25:41;8.93;;;3.63;;
74624;SDS011;63131;52.298;8.056;2023-02-27T06:28:07;7.38;;;3.25;;
74624;SDS011;63131;52.298;8.056;2023-02-27T06:30:33;8.23;;;3.55;;
74624;SDS011;63131;52.298;8.056;2023-02-27T06:32:59;7.65;;;3.60;;
74624;SDS011;63131;52.298;8.056;2023-02-27T06:35:25;9.75;;;3.00;;
74624;SDS011;63131;52.298;8.056;2023-02-27T06:37:53;8.38;;;3.25;;
74624;SDS011;63131;52.298;8.056;2023-02-27T06:40:18;9.85;;;3.78;;
74624;SDS011;63131;52.298;8.056;2023-02-27T06:42:44;9.15;;;3.78;;
74624;SDS011;63131;52.298;8.056;2023-02-27T06:45:13;11.65;;;4.18;;
74624;SDS011;63131;52.298;8.056;2023-02-27T06:47:39;7.65;;;2.97;;
74624;SDS011;63131;52.298;8.056;2023-02-27T06:50:05;7.90;;;3.60;;
74624;SDS011;63131;52.298;8.056;2023-02-27T06:52:31;10.80;;;4.40;;
74624;SDS011;63131;52.298;8.056;2023-02-27T06:54:57;8.20;;;3.50;;
74624;SDS011;63131;52.298;8.056;2023-02-27T06:57:23;9.50;;;3.60;;
74624;SDS011;63131;52.298;8.056;2023-02-27T06:59:49;9.57;;;3.17;;
74624;SDS011;63131;52.298;8.056;2023-02-27T07:02:14;7.95;;;3.65;;
74624;SDS011;63131;52.298;8.056;2023-02-27T07:04:40;9.57;;;4.45;;
74624;SDS011;63131;52.298;8.056;2023-02-27T07:07:07;10.23;;;4.35;;
74624;SDS011;63131;52.298;8.056;2023-02-27T07:09:33;11.00;;;4.30;;
74624;SDS011;63131;52.298;8.056;2023-02-27T07:12:00;10.80;;;4.70;;
74624;SDS011;63131;52.298;8.056;2023-02-27T07:14:26;9.50;;;4.40;;
74624;SDS011;63131;52.298;8.056;2023-02-27T07:16:51;11.05;;;4.22;;
74624;SDS011;63131;52.298;8.056;2023-02-27T07:19:20;9.90;;;3.85;;
74624;SDS011;63131;52.298;8.056;2023-02-27T07:21:46;10.30;;;4.45;;
74624;SDS011;63131;52.298;8.056;2023-02-27T07:24:12;10.25;;;4.07;;
74624;SDS011;63131;52.298;8.056;2023-02-27T07:26:37;11.40;;;4.28;;
74624;SDS011;63131;52.298;8.056;2023-02-27T07:29:03;10.13;;;4.05;;
74624;SDS011;63131;52.298;8.056;2023-02-27T07:31:28;8.93;;;4.22;;
74624;SDS011;63131;52.298;8.056;2023-02-27T07:33:54;9.88;;;4.47;;
74624;SDS011;63131;52.298;8.056;2023-02-27T07:36:19;12.32;;;5.40;;
74624;SDS011;63131;52.298;8.056;2023-02-27T07:38:48;12.25;;;4.85;;
74624;SDS011;63131;52.298;8.056;2023-02-27T07:41:14;10.45;;;4.45;;
74624;SDS011;63131;52.298;8.056;2023-02-27T07:43:39;10.88;;;4.65;;
74624;SDS011;63131;52.298;8.056;2023-02-27T07:46:04;10.48;;;4.80;;
74624;SDS011;63131;52.298;8.056;2023-02-27T07:48:30;13.40;;;5.10;;
74624;SDS011;63131;52.298;8.056;2023-02-27T07:50:56;12.60;;;4.40;;
74624;SDS011;63131;52.298;8.056;2023-02-27T07:53:22;10.32;;;4.90;;
74624;SDS011;63131;52.298;8.056;2023-02-27T07:55:47;9.45;;;5.38;;
74624;SDS011;63131;52.298;8.056;2023-02-27T07:58:12;12.27;;;5.28;;
74624;SDS011;63131;52.298;8.056;2023-02-27T08:00:38;12.27;;;5.30;;
74624;SDS011;63131;52.298;8.056;2023-02-27T08:03:03;11.02;;;5.07;;
74624;SDS011;63131;52.298;8.056;2023-02-27T08:05:29;10.23;;;5.20;;
74624;SDS011;63131;52.298;8.056;2023-02-27T08:07:54;11.43;;;4.85;;
74624;SDS011;63131;52.298;8.056;2023-02-27T08:10:20;10.07;;;4.60;;
74624;SDS011;63131;52.298;8.056;2023-02-27T08:12:45;13.30;;;5.57;;
74624;SDS011;63131;52.298;8.056;2023-02-27T08:15:11;9.48;;;5.18;;
74624;SDS011;63131;52.298;8.056;2023-02-27T08:17:36;10.30;;;4.68;;
74624;SDS011;63131;52.298;8.056;2023-02-27T08:20:02;10.05;;;4.90;;
74624;SDS011;63131;52.298;8.056;2023-02-27T08:22:29;10.65;;;5.38;;
74624;SDS011;63131;52.298;8.056;2023-02-27T08:24:54;10.43;;;4.40;;
74624;SDS011;63131;52.298;8.056;2023-02-27T08:27:20;10.05;;;4.32;;
74624;SDS011;63131;52.298;8.056;2023-02-27T08:29:45;10.85;;;4.45;;
74624;SDS011;63131;52.298;8.056;2023-02-27T08:32:10;9.63;;;3.70;;
74624;SDS011;63131;52.298;8.056;2023-02-27T08:34:36;9.68;;;3.55;;
74624;SDS011;63131;52.298;8.056;2023-02-27T08:37:01;7.90;;;3.70;;
74624;SDS011;63131;52.298;8.056;2023-02-27T08:39:26;7.85;;;3.60;;
74624;SDS011;63131;52.298;8.056;2023-02-27T08:41:52;7.18;;;3.58;;
74624;SDS011;63131;52.298;8.056;2023-02-27T08:44:18;7.95;;;3.25;;
74624;SDS011;63131;52.298;8.056;2023-02-27T08:46:43;8.75;;;3.38;;
74624;SDS011;63131;52.298;8.056;2023-02-27T08:49:09;12.52;;;3.95;;
74624;SDS011;63131;52.298;8.056;2023-02-27T08:51:34;9.45;;;3.90;;
74624;SDS011;63131;52.298;8.056;2023-02-27T08:54:00;7.50;;;3.28;;
74624;SDS011;63131;52.298;8.056;2023-02-27T08:56:25;11.73;;;4.03;;
74624;SDS011;63131;52.298;8.056;2023-02-27T08:58:51;9.85;;;4.25;;
74624;SDS011;63131;52.298;8.056;2023-02-27T09:01:17;9.50;;;3.47;;
74624;SDS011;63131;52.298;8.056;2023-02-27T09:03:42;8.23;;;2.95;;
74624;SDS011;63131;52.298;8.056;2023-02-27T09:06:08;10.55;;;3.88;;
74624;SDS011;63131;52.298;8.056;2023-02-27T09:08:33;6.80;;;2.92;;
74624;SDS011;63131;52.298;8.056;2023-02-27T09:10:58;11.75;;;3.88;;
74624;SDS011;63131;52.298;8.056;2023-02-27T09:13:24;8.82;;;3.65;;
74624;SDS011;63131;52.298;8.056;2023-02-27T09:15:50;7.72;;;3.63;;
74624;SDS011;63131;52.298;8.056;2023-02-27T09:18:16;8.45;;;3.30;;
74624;SDS011;63131;52.298;8.056;2023-02-27T09:20:41;9.32;;;4.30;;
74624;SDS011;63131;52.298;8.056;2023-02-27T09:23:07;11.90;;;3.83;;
74624;SDS011;63131;52.298;8.056;2023-02-27T09:25:32;8.20;;;3.00;;
74624;SDS011;63131;52.298;8.056;2023-02-27T09:27:57;8.98;;;3.20;;
74624;SDS011;63131;52.298;8.056;2023-02-27T09:30:23;11.68;;;3.28;;
74624;SDS011;63131;52.298;8.056;2023-02-27T09:32:48;6.95;;;3.13;;
74624;SDS011;63131;52.298;8.056;2023-02-27T09:35:14;9.02;;;2.95;;
74624;SDS011;63131;52.298;8.056;2023-02-27T09:37:41;10.82;;;3.30;;
74624;SDS011;63131;52.298;8.056;2023-02-27T09:40:09;10.60;;;3.20;;
74624;SDS011;63131;52.298;8.056;2023-02-27T09:42:55;7.25;;;2.60;;
74624;SDS011;63131;52.298;8.056;2023-02-27T09:45:25;8.93;;;3.00;;
74624;SDS011;63131;52.298;8.056;2023-02-27T09:47:53;7.07;;;2.42;;
74624;SDS011;63131;52.298;8.056;2023-02-27T09:53:06;7.90;;;2.88;;
74624;SDS011;63131;52.298;8.056;2023-02-27T09:55:37;6.63;;;2.28;;
74624;SDS011;63131;52.298;8.056;2023-02-27T09:58:05;7.53;;;2.00;;
74624;SDS011;63131;52.298;8.056;2023-02-27T10:06:17;7.78;;;1.92;;
74624;SDS011;63131;52.298;8.056;2023-02-27T10:09:08;5.60;;;1.80;;
74624;SDS011;63131;52.298;8.056;2023-02-27T10:12:01;7.30;;;2.20;;
74624;SDS011;63131;52.298;8.056;2023-02-27T10:14:39;6.30;;;1.88;;
74624;SDS011;63131;52.298;8.056;2023-02-27T10:17:09;5.38;;;1.92;;
74624;SDS011;63131;52.298;8.056;2023-02-27T10:19:38;6.25;;;2.17;;
74624;SDS011;63131;52.298;8.056;2023-02-27T10:22:04;5.68;;;2.05;;
74624;SDS011;63131;52.298;8.056;2023-02-27T10:24:54;6.10;;;2.17;;
74624;SDS011;63131;52.298;8.056;2023-02-27T10:27:23;6.65;;;2.25;;
74624;SDS011;63131;52.298;8.056;2023-02-27T10:29:49;7.15;;;2.20;;
74624;SDS011;63131;52.298;8.056;2023-02-27T10:32:17;5.68;;;1.83;;
74624;SDS011;63131;52.298;8.056;2023-02-27T10:34:46;4.22;;;1.77;;
74624;SDS011;63131;52.298;8.056;2023-02-27T10:37:15;6.35;;;2.47;;
74624;SDS011;63131;52.298;8.056;2023-02-27T10:39:46;6.38;;;2.13;;
74624;SDS011;63131;52.298;8.056;2023-02-27T10:42:14;5.75;;;2.08;;
74624;SDS011;63131;52.298;8.056;2023-02-27T10:44:40;5.13;;;1.63;;
74624;SDS011;63131;52.298;8.056;2023-02-27T10:47:05;6.03;;;1.52;;
74624;SDS011;63131;52.298;8.056;2023-02-27T10:49:31;8.13;;;1.70;;
74624;SDS011;63131;52.298;8.056;2023-02-27T10:52:04;6.15;;;1.80;;
74624;SDS011;63131;52.298;8.056;2023-02-27T10:54:32;6.38;;;2.15;;
74624;SDS011;63131;52.298;8.056;2023-02-27T10:56:59;7.03;;;2.15;;
74624;SDS011;63131;52.298;8.056;2023-02-27T10:59:35;6.60;;;1.77;;
74624;SDS011;63131;52.298;8.056;2023-02-27T11:02:05;6.03;;;2.25;;
74624;SDS011;63131;52.298;8.056;2023-02-27T11:04:49;9.82;;;2.55;;
74624;SDS011;63131;52.298;8.056;2023-02-27T11:07:24;6.75;;;3.28;;
74624;SDS011;63131;52.298;8.056;2023-02-27T11:12:36;5.85;;;2.22;;
74624;SDS011;63131;52.298;8.056;2023-02-27T11:17:39;6.43;;;2.08;;
74624;SDS011;63131;52.298;8.056;2023-02-27T11:20:05;5.28;;;1.85;;
74624;SDS011;63131;52.298;8.056;2023-02-27T11:23:03;9.85;;;2.80;;
74624;SDS011;63131;52.298;8.056;2023-02-27T11:25:29;8.32;;;2.00;;
74624;SDS011;63131;52.298;8.056;2023-02-27T11:28:10;6.35;;;2.35;;
74624;SDS011;63131;52.298;8.056;2023-02-27T11:30:38;9.05;;;2.28;;
74624;SDS011;63131;52.298;8.056;2023-02-27T11:33:09;6.18;;;2.70;;
74624;SDS011;63131;52.298;8.056;2023-02-27T11:35:41;7.88;;;2.60;;
74624;SDS011;63131;52.298;8.056;2023-02-27T11:38:15;7.35;;;2.22;;
74624;SDS011;63131;52.298;8.056;2023-02-27T11:40:56;7.10;;;2.13;;
74624;SDS011;63131;52.298;8.056;2023-02-27T11:43:25;7.28;;;2.35;;
74624;SDS011;63131;52.298;8.056;2023-02-27T11:45:55;4.65;;;1.63;;
74624;SDS011;63131;52.298;8.056;2023-02-27T11:48:24;7.13;;;1.83;;
74624;SDS011;63131;52.298;8.056;2023-02-27T11:51:14;6.38;;;2.13;;
74624;SDS011;63131;52.298;8.056;2023-02-27T11:56:21;4.25;;;1.70;;
74624;SDS011;63131;52.298;8.056;2023-02-27T12:07:16;8.45;;;2.38;;
74624;SDS011;63131;52.298;8.056;2023-02-27T12:12:43;7.93;;;2.25;;
74624;SDS011;63131;52.298;8.056;2023-02-27T12:15:31;8.07;;;2.30;;
74624;SDS011;63131;52.298;8.056;2023-02-27T12:23:14;7.75;;;2.08;;
74624;SDS011;63131;52.298;8.056;2023-02-27T12:25:44;7.47;;;2.03;;
74624;SDS011;63131;52.298;8.056;2023-02-27T12:30:47;5.05;;;2.00;;
74624;SDS011;63131;52.298;8.056;2023-02-27T12:33:29;5.90;;;1.80;;
74624;SDS011;63131;52.298;8.056;2023-02-27T12:36:08;7.35;;;2.20;;
74624;SDS011;63131;52.298;8.056;2023-02-27T12:38:35;5.75;;;2.08;;
74624;SDS011;63131;52.298;8.056;2023-02-27T12:46:29;7.82;;;2.50;;
74624;SDS011;63131;52.298;8.056;2023-02-27T12:49:14;10.45;;;2.70;;
74624;SDS011;63131;52.298;8.056;2023-02-27T12:52:00;6.45;;;2.47;;
74624;SDS011;63131;52.298;8.056;2023-02-27T12:54:34;5.95;;;2.20;;
74624;SDS011;63131;52.298;8.056;2023-02-27T12:57:17;5.95;;;2.17;;
74624;SDS011;63131;52.298;8.056;2023-02-27T13:00:12;6.05;;;1.90;;
74624;SDS011;63131;52.298;8.056;2023-02-27T13:08:05;6.00;;;2.10;;
74624;SDS011;63131;52.298;8.056;2023-02-27T13:10:49;6.88;;;1.75;;
74624;SDS011;63131;52.298;8.056;2023-02-27T13:13:39;5.10;;;1.70;;
74624;SDS011;63131;52.298;8.056;2023-02-27T13:21:30;5.82;;;2.08;;
74624;SDS011;63131;52.298;8.056;2023-02-27T13:24:08;4.32;;;1.58;;
74624;SDS011;63131;52.298;8.056;2023-02-27T13:26:39;9.10;;;2.00;;
74624;SDS011;63131;52.298;8.056;2023-02-27T13:29:11;7.75;;;1.75;;
74624;SDS011;63131;52.298;8.056;2023-02-27T13:31:43;7.43;;;1.98;;
74624;SDS011;63131;52.298;8.056;2023-02-27T13:34:20;5.80;;;1.52;;
74624;SDS011;63131;52.298;8.056;2023-02-27T13:36:53;6.10;;;1.80;;
74624;SDS011;63131;52.298;8.056;2023-02-27T13:42:04;4.97;;;1.52;;
74624;SDS011;63131;52.298;8.056;2023-02-27T13:44:52;7.30;;;2.53;;
74624;SDS011;63131;52.298;8.056;2023-02-27T13:49:53;6.30;;;1.80;;
74624;SDS011;63131;52.298;8.056;2023-02-27T13:52:28;8.40;;;3.40;;
74624;SDS011;63131;52.298;8.056;2023-02-27T13:54:55;4.30;;;1.40;;
74624;SDS011;63131;52.298;8.056;2023-02-27T13:57:34;7.38;;;2.28;;
74624;SDS011;63131;52.298;8.056;2023-02-27T14:00:20;4.20;;;1.45;;
74624;SDS011;63131;52.298;8.056;2023-02-27T14:03:06;3.38;;;1.15;;
74624;SDS011;63131;52.298;8.056;2023-02-27T14:24:51;4.38;;;1.33;;
74624;SDS011;63131;52.298;8.056;2023-02-27T14:30:17;3.22;;;1.00;;
74624;SDS011;63131;52.298;8.056;2023-02-27T14:32:56;3.42;;;1.20;;
74624;SDS011;63131;52.298;8.056;2023-02-27T14:35:32;6.03;;;1.30;;
74624;SDS011;63131;52.298;8.056;2023-02-27T14:37:59;4.43;;;1.35;;
74624;SDS011;63131;52.298;8.056;2023-02-27T14:40:40;5.65;;;1.70;;
74624;SDS011;63131;52.298;8.056;2023-02-27T14:43:37;7.20;;;1.50;;
74624;SDS011;63131;52.298;8.056;2023-02-27T14:46:51;4.95;;;1.83;;
74624;SDS011;63131;52.298;8.056;2023-02-27T14:49:28;4.88;;;1.35;;
74624;SDS011;63131;52.298;8.056;2023-02-27T14:54:45;4.25;;;1.40;;
74624;SDS011;63131;52.298;8.056;2023-02-27T14:57:18;4.75;;;1.65;;
74624;SDS011;63131;52.298;8.056;2023-02-27T14:59:47;4.78;;;1.45;;
74624;SDS011;63131;52.298;8.056;2023-02-27T15:07:24;4.40;;;1.40;;
74624;SDS011;63131;52.298;8.056;2023-02-27T15:09:57;6.25;;;1.70;;
74624;SDS011;63131;52.298;8.056;2023-02-27T15:12:26;5.15;;;1.50;;
74624;SDS011;63131;52.298;8.056;2023-02-27T15:14:54;4.65;;;1.48;;
74624;SDS011;63131;52.298;8.056;2023-02-27T15:17:26;4.70;;;1.50;;
74624;SDS011;63131;52.298;8.056;2023-02-27T15:20:14;5.20;;;1.20;;
74624;SDS011;63131;52.298;8.056;2023-02-27T15:22:46;5.72;;;1.58;;
74624;SDS011;63131;52.298;8.056;2023-02-27T15:28:19;5.85;;;1.73;;
74624;SDS011;63131;52.298;8.056;2023-02-27T15:31:09;5.40;;;1.98;;
74624;SDS011;63131;52.298;8.056;2023-02-27T15:33:37;5.90;;;1.60;;
74624;SDS011;63131;52.298;8.056;2023-02-27T15:36:06;6.68;;;1.85;;
74624;SDS011;63131;52.298;8.056;2023-02-27T15:41:30;5.75;;;1.65;;
74624;SDS011;63131;52.298;8.056;2023-02-27T15:44:00;5.53;;;1.58;;
74624;SDS011;63131;52.298;8.056;2023-02-27T15:46:28;5.82;;;1.80;;
74624;SDS011;63131;52.298;8.056;2023-02-27T15:48:54;7.88;;;2.20;;
74624;SDS011;63131;52.298;8.056;2023-02-27T15:51:19;6.50;;;2.15;;
74624;SDS011;63131;52.298;8.056;2023-02-27T15:53:57;5.75;;;1.60;;
74624;SDS011;63131;52.298;8.056;2023-02-27T15:56:27;4.88;;;1.60;;
74624;SDS011;63131;52.298;8.056;2023-02-27T15:58:59;6.88;;;1.88;;
74624;SDS011;63131;52.298;8.056;2023-02-27T16:01:26;5.50;;;1.67;;
74624;SDS011;63131;52.298;8.056;2023-02-27T16:04:00;4.78;;;1.95;;
74624;SDS011;63131;52.298;8.056;2023-02-27T16:06:29;4.60;;;1.67;;
74624;SDS011;63131;52.298;8.056;2023-02-27T16:09:05;6.07;;;1.60;;
74624;SDS011;63131;52.298;8.056;2023-02-27T16:11:43;6.00;;;2.13;;
74624;SDS011;63131;52.298;8.056;2023-02-27T16:14:34;5.82;;;2.25;;
74624;SDS011;63131;52.298;8.056;2023-02-27T16:17:19;6.05;;;2.03;;
74624;SDS011;63131;52.298;8.056;2023-02-27T16:19:46;5.47;;;1.70;;
74624;SDS011;63131;52.298;8.056;2023-02-27T16:22:16;7.43;;;2.33;;
74624;SDS011;63131;52.298;8.056;2023-02-27T16:24:43;6.05;;;2.08;;
74624;SDS011;63131;52.298;8.056;2023-02-27T16:27:25;4.47;;;1.40;;
74624;SDS011;63131;52.298;8.056;2023-02-27T16:29:52;5.75;;;1.85;;
74624;SDS011;63131;52.298;8.056;2023-02-27T16:32:26;5.45;;;1.70;;
74624;SDS011;63131;52.298;8.056;2023-02-27T16:35:02;6.22;;;1.95;;
74624;SDS011;63131;52.298;8.056;2023-02-27T16:37:34;4.93;;;1.70;;
74624;SDS011;63131;52.298;8.056;2023-02-27T16:40:23;4.97;;;1.70;;
74624;SDS011;63131;52.298;8.056;2023-02-27T16:42:50;5.15;;;1.52;;
74624;SDS011;63131;52.298;8.056;2023-02-27T16:45:17;8.80;;;2.10;;
74624;SDS011;63131;52.298;8.056;2023-02-27T16:47:44;5.72;;;1.80;;
74624;SDS011;63131;52.298;8.056;2023-02-27T16:50:14;6.75;;;2.13;;
74624;SDS011;63131;52.298;8.056;2023-02-27T16:52:52;5.60;;;1.98;;
74624;SDS011;63131;52.298;8.056;2023-02-27T16:55:17;4.57;;;1.73;;
74624;SDS011;63131;52.298;8.056;2023-02-27T16:57:43;7.50;;;2.25;;
74624;SDS011;63131;52.298;8.056;2023-02-27T17:00:14;8.20;;;2.70;;
74624;SDS011;63131;52.298;8.056;2023-02-27T17:02:43;7.32;;;2.72;;
74624;SDS011;63131;52.298;8.056;2023-02-27T17:05:08;7.47;;;2.10;;
74624;SDS011;63131;52.298;8.056;2023-02-27T17:07:34;8.70;;;2.83;;
74624;SDS011;63131;52.298;8.056;2023-02-27T17:10:00;8.20;;;2.88;;
74624;SDS011;63131;52.298;8.056;2023-02-27T17:12:25;7.72;;;3.05;;
74624;SDS011;63131;52.298;8.056;2023-02-27T17:14:51;6.95;;;2.10;;
74624;SDS011;63131;52.298;8.056;2023-02-27T17:17:17;8.60;;;2.55;;
74624;SDS011;63131;52.298;8.056;2023-02-27T17:19:42;7.15;;;2.30;;
74624;SDS011;63131;52.298;8.056;2023-02-27T17:22:08;9.32;;;2.25;;
74624;SDS011;63131;52.298;8.056;2023-02-27T17:24:33;8.10;;;2.67;;
74624;SDS011;63131;52.298;8.056;2023-02-27T17:26:58;8.25;;;3.15;;
74624;SDS011;63131;52.298;8.056;2023-02-27T17:29:24;9.45;;;3.13;;
74624;SDS011;63131;52.298;8.056;2023-02-27T17:31:50;7.70;;;2.80;;
74624;SDS011;63131;52.298;8.056;2023-02-27T17:34:16;8.73;;;3.10;;
74624;SDS011;63131;52.298;8.056;2023-02-27T17:36:42;10.00;;;3.20;;
74624;SDS011;63131;52.298;8.056;2023-02-27T17:39:09;8.75;;;3.80;;
74624;SDS011;63131;52.298;8.056;2023-02-27T17:41:36;9.07;;;4.05;;
74624;SDS011;63131;52.298;8.056;2023-02-27T17:44:01;15.73;;;5.03;;
74624;SDS011;63131;52.298;8.056;2023-02-27T17:46:27;12.00;;;5.20;;
74624;SDS011;63131;52.298;8.056;2023-02-27T17:48:54;12.38;;;5.00;;